Weather at Burns Aerodrome

Public forecast

Using degrees Fahrenheit for public forecast. Weather courtesy of forecast.io.

Closest aviation weather report (METAR) to Burns Aerodrome

Closest report is Tunica Municipal Airport, 33.4 nm (61.8 km) ESE. Retrieved 2020/09/23 08:15 UTC (0 seconds ago):

KUTA 230815Z AUTO 05003KT 10SM -RA SCT033 SCT044 BKN050 16/16 A3006 RMK AO2 P0001 TSNO

Closest aviation forecast (TAF) to Burns Aerodrome

Closest forecast is Memphis International Airport, 46.3 nm (85.7 km) E. Retrieved 2020/09/23 06:22 UTC (2 hours ago):

TAF KMEM 230520Z 2306/2412 VRB04KT P6SM -SHRA OVC070 FM230800 08005KT 6SM -RA BR OVC040 FM231300 09009KT 5SM -RA BR OVC020 FM231700 09009KT 4SM -RA BR OVC020 FM232000 10008KT 4SM -RA BR OVC015 FM240200 09008KT 5SM -SHRA OVC015